Time;durP1;ratioP1;P1;durP2;ratioP2;P2;SDS_P1;SDS_P2;PMS_P1;PMS_P2;Temp;Humidity;BMP_temperature;BMP_pressure;BME280_temperature;BME280_humidity;BME280_pressure;Samples;Min_cycle;Max_cycle;Signal;HPM_P1;HPM_P2
2022/07/12 00:01:55;;;;;;;11.28;9.30;;;;;;;11.37;78.82;99111.58;1454510;80;21061;-70
2022/07/12 00:03:56;;;;;;;12.65;8.98;;;;;;;11.37;78.84;99109.78;1453447;79;81612;-70
2022/07/12 00:05:57;;;;;;;12.70;9.03;;;;;;;11.39;78.85;99111.03;1453097;79;21613;-70
2022/07/12 00:07:58;;;;;;;;;;;;;;;11.40;78.89;99108.78;1455776;81;21022;-70
2022/07/12 00:09:59;;;;;;;10.35;9.03;;;;;;;11.39;78.93;99113.22;1448855;80;67639;-70
2022/07/12 00:12:00;;;;;;;13.18;9.53;;;;;;;11.38;78.94;99108.86;1452711;81;21017;-71
2022/07/12 00:14:02;;;;;;;14.33;9.43;;;;;;;11.39;78.95;99112.34;1452522;81;80872;-71
2022/07/12 00:16:03;;;;;;;18.05;11.08;;;;;;;11.39;78.95;99110.58;1450204;81;21043;-71
2022/07/12 00:18:04;;;;;;;12.98;9.70;;;;;;;11.40;78.99;99114.91;1451643;81;21595;-70
2022/07/12 00:20:07;;;;;;;17.05;11.28;;;;;;;11.44;79.00;99121.34;1449513;81;80949;-71
2022/07/12 00:22:08;;;;;;;12.70;11.30;;;;;;;11.44;79.02;99120.02;1456790;81;21493;-71
2022/07/12 00:24:09;;;;;;;16.52;11.10;;;;;;;11.46;79.02;99127.42;1446101;80;81853;-71
2022/07/12 00:26:10;;;;;;;13.85;10.70;;;;;;;11.45;79.07;99119.98;1457377;79;21029;-71
2022/07/12 00:28:11;;;;;;;14.23;10.60;;;;;;;11.48;79.07;99111.02;1452930;79;21018;-70
2022/07/12 00:30:12;;;;;;;17.75;10.90;;;;;;;11.47;79.08;99117.26;1450110;79;81797;-70
2022/07/12 00:32:13;;;;;;;13.62;10.75;;;;;;;11.47;79.09;99115.94;1454382;80;21054;-70
2022/07/12 00:34:14;;;;;;;15.03;11.08;;;;;;;11.43;79.10;99104.66;1450175;81;80975;-70
2022/07/12 00:36:15;;;;;;;14.50;11.12;;;;;;;11.47;79.12;99110.18;1452578;81;21550;-71
2022/07/12 00:38:17;;;;;;;13.22;11.15;;;;;;;11.49;79.15;99117.58;1454045;81;21041;-71
2022/07/12 00:40:18;;;;;;;;;;;;;;;11.50;79.15;99113.14;1450384;79;80956;-71
2022/07/12 00:42:19;;;;;;;14.98;11.18;;;;;;;11.50;79.25;99109.18;1450902;81;20179;-71
2022/07/12 00:44:20;;;;;;;19.40;11.63;;;;;;;11.51;79.25;99113.53;1452176;81;80920;-71
2022/07/12 00:46:23;;;;;;;19.82;10.38;;;;;;;11.52;79.27;99116.09;1452191;81;21497;-71
2022/07/12 00:48:25;;;;;;;15.53;11.03;;;;;;;11.53;79.24;99118.25;1451961;81;21094;-71
2022/07/12 00:50:26;;;;;;;14.28;10.53;;;;;;;11.53;79.25;99120.89;1451727;79;80972;-71
2022/07/12 00:52:27;;;;;;;13.95;11.05;;;;;;;11.54;79.26;99118.17;1451763;81;20970;-71
2022/07/12 00:54:28;;;;;;;18.25;11.18;;;;;;;11.54;79.25;99120.81;1446745;80;81095;-71
2022/07/12 00:56:29;;;;;;;19.15;11.35;;;;;;;11.56;79.27;99123.38;1453147;81;21073;-71
2022/07/12 00:58:31;;;;;;;20.65;11.25;;;;;;;11.56;79.28;99120.29;1453025;80;81226;-71
2022/07/12 01:00:32;;;;;;;14.55;11.80;;;;;;;11.57;79.28;99124.65;1455402;79;21573;-71
2022/07/12 01:02:34;;;;;;;15.78;11.83;;;;;;;11.58;79.29;99126.81;1450103;81;20998;-71
2022/07/12 01:04:36;;;;;;;14.70;11.53;;;;;;;11.58;79.32;99126.81;1451418;81;81206;-71
2022/07/12 01:06:37;;;;;;;;;;;;;;;11.60;79.34;99124.93;1455396;80;21002;-71
2022/07/12 01:08:38;;;;;;;12.47;9.93;;;;;;;11.62;79.40;99120.92;1457006;79;67998;-71
2022/07/12 01:10:40;;;;;;;15.63;12.63;;;;;;;11.59;79.39;99123.25;1487429;79;20972;-72
2022/07/12 01:12:41;;;;;;;13.60;11.20;;;;;;;11.63;79.40;99123.48;1483569;79;20988;-72
2022/07/12 01:14:44;;;;;;;18.30;11.75;;;;;;;11.65;79.42;99128.20;1465179;79;81025;-71
2022/07/12 01:16:46;;;;;;;14.47;11.38;;;;;;;11.67;79.42;99126.36;1461279;80;21011;-71
2022/07/12 01:18:47;;;;;;;17.42;11.70;;;;;;;11.70;79.46;99129.28;1457334;80;80914;-71
2022/07/12 01:20:48;;;;;;;18.25;11.80;;;;;;;11.72;79.45;99124.80;1457166;80;21033;-71
2022/07/12 01:22:57;;;;;;;;;;;;;;;11.72;79.46;99128.28;1461278;80;21015;-71
2022/07/12 01:25:00;;;;;;;14.90;10.25;;;;;;;11.76;79.56;99123.70;1456704;80;67200;-71
2022/07/12 01:27:05;;;;;;;14.03;9.43;;;;;;;11.77;79.53;99121.47;1456922;80;21381;-71
2022/07/12 01:29:08;;;;;;;12.53;9.55;;;;;;;11.78;79.53;99115.70;1459033;80;80730;-71
2022/07/12 01:31:09;;;;;;;14.47;9.30;;;;;;;11.80;79.54;99119.98;1456351;80;22114;-71
2022/07/12 01:33:10;;;;;;;16.23;9.45;;;;;;;11.82;79.54;99119.42;1457866;80;21026;-71
2022/07/12 01:35:13;;;;;;;;;;;;;;;11.84;79.57;99112.77;1481786;79;80924;-72
2022/07/12 01:37:15;;;;;;;19.95;8.40;;;;;;;11.85;79.65;99105.20;1479032;79;20127;-72
2022/07/12 01:39:16;;;;;;;15.28;8.73;;;;;;;11.84;79.62;99103.52;1479630;79;80726;-71
2022/07/12 01:41:17;;;;;;;21.35;9.08;;;;;;;11.85;79.62;99099.48;1489966;79;20976;-71
2022/07/12 01:43:18;;;;;;;11.97;8.08;;;;;;;11.88;79.63;99110.33;1484619;79;21534;-71
2022/07/12 01:45:19;;;;;;;12.43;8.00;;;;;;;11.88;79.65;99099.77;1479000;79;81621;-71
2022/07/12 01:47:22;;;;;;;15.45;8.50;;;;;;;11.88;79.65;99107.23;1485103;79;21107;-71
2022/07/12 01:49:23;;;;;;;18.07;8.65;;;;;;;11.89;79.66;99100.16;1478172;79;80865;-71
2022/07/12 01:51:24;;;;;;;15.30;7.92;;;;;;;11.90;79.66;99104.03;1485784;79;20976;-71
2022/07/12 01:53:26;;;;;;;13.53;7.22;;;;;;;11.90;79.66;99108.00;1485302;79;20917;-71
2022/07/12 01:55:28;;;;;;;11.33;7.22;;;;;;;11.91;79.67;99106.23;1485473;79;21054;-71
2022/07/12 01:57:29;;;;;;;15.10;7.50;;;;;;;11.89;79.64;99108.08;1481405;79;22127;-72
2022/07/12 01:59:30;;;;;;;;;;;;;;;11.92;79.67;99103.95;1485220;78;80729;-71
2022/07/12 02:01:32;;;;;;;8.28;7.05;;;;;;;11.91;79.74;99104.91;1451291;81;20112;-71
2022/07/12 02:03:38;;;;;;;8.05;6.62;;;;;;;11.90;79.71;99105.83;1445529;81;80757;-71
2022/07/12 02:05:38;;;;;;;14.43;8.10;;;;;;;11.91;79.72;99103.59;1450974;81;21040;-71
2022/07/12 02:07:41;;;;;;;12.75;8.70;;;;;;;11.91;79.69;99100.95;1447501;80;20992;-71
2022/07/12 02:09:42;;;;;;;14.73;8.58;;;;;;;11.91;79.71;99105.75;1443379;81;80932;-72
2022/07/12 02:11:44;;;;;;;11.70;8.98;;;;;;;11.91;79.69;99105.75;1446809;81;21562;-72
2022/07/12 02:13:44;;;;;;;13.13;9.58;;;;;;;11.88;79.68;99106.36;1439187;81;82244;-71
2022/07/12 02:15:45;;;;;;;13.35;10.13;;;;;;;11.92;79.71;99107.91;1420068;82;21031;-71
2022/07/12 02:17:47;;;;;;;12.45;10.18;;;;;;;11.91;79.73;99101.79;1424252;82;21574;-71
2022/07/12 02:19:48;;;;;;;11.85;10.55;;;;;;;11.91;79.70;99116.80;1411205;83;81135;-71
2022/07/12 02:21:49;;;;;;;14.55;10.90;;;;;;;11.90;79.72;99111.11;1408657;83;20966;-71
2022/07/12 02:23:50;;;;;;;15.32;10.30;;;;;;;11.88;79.77;99106.36;1406160;83;82721;-71
2022/07/12 02:25:52;;;;;;;19.48;11.63;;;;;;;11.86;79.77;99099.00;1408476;83;22244;-71
2022/07/12 02:27:54;;;;;;;11.53;10.28;;;;;;;11.86;79.79;99102.97;1386481;84;21082;-70
2022/07/12 02:29:54;;;;;;;;;;;;;;;11.86;79.76;99106.45;1387847;83;81187;-70
2022/07/12 02:31:55;;;;;;;18.77;11.73;;;;;;;11.86;79.85;99101.64;1383964;84;20134;-71
2022/07/12 02:33:57;;;;;;;14.40;11.28;;;;;;;11.84;79.86;99109.65;1421063;81;80969;-71
2022/07/12 02:35:58;;;;;;;19.20;11.95;;;;;;;11.84;79.82;99112.77;1420250;82;20978;-70
2022/07/12 02:37:59;;;;;;;18.50;12.70;;;;;;;11.82;79.86;99098.77;1425574;82;21401;-71
2022/07/12 02:42:19;;;;;;;16.23;12.63;;;;;;;11.84;79.93;99106.16;1423994;82;20180;-71
2022/07/12 02:44:20;;;;;;;22.62;13.13;;;;;;;11.82;79.95;99108.02;1415007;82;81842;-71
2022/07/12 02:46:21;;;;;;;;;;;;;;;11.84;79.97;99114.93;1411227;83;21075;-70
2022/07/12 02:48:23;;;;;;;18.85;12.60;;;;;;;11.82;79.97;99114.61;1407861;83;20177;-70
2022/07/12 02:50:24;;;;;;;15.48;13.15;;;;;;;11.82;79.97;99117.25;1420239;82;81509;-70
2022/07/12 02:52:25;;;;;;;14.73;12.53;;;;;;;11.81;79.97;99118.19;1420715;82;21026;-72
2022/07/12 02:54:26;;;;;;;28.75;12.73;;;;;;;11.82;79.95;99123.38;1420618;82;81618;-71
2022/07/12 02:56:27;;;;;;;23.98;13.40;;;;;;;11.81;79.93;99122.14;1423764;82;20995;-71
2022/07/12 02:58:28;;;;;;;17.62;13.25;;;;;;;11.80;79.98;99125.27;1418192;82;81120;-72
2022/07/12 03:00:30;;;;;;;19.25;13.58;;;;;;;11.81;79.98;99119.06;1423149;82;21062;-71
2022/07/12 03:02:31;;;;;;;15.75;13.80;;;;;;;11.84;80.01;99124.66;1420712;82;20987;-71
2022/07/12 03:04:32;;;;;;;17.10;13.85;;;;;;;11.85;80.03;99123.25;1411935;81;81090;-71
2022/07/12 03:06:33;;;;;;;20.10;13.72;;;;;;;11.86;80.04;99118.81;1408774;82;21040;-71
2022/07/12 03:08:35;;;;;;;19.73;13.78;;;;;;;11.86;80.03;99118.33;1374703;84;85966;-71
2022/07/12 03:10:36;;;;;;;26.30;15.50;;;;;;;11.86;80.02;99121.45;1436010;81;21476;-71
2022/07/12 03:12:38;;;;;;;20.65;14.30;;;;;;;11.86;80.03;99115.69;1437649;81;21054;-71
2022/07/12 03:14:39;;;;;;;24.80;15.58;;;;;;;11.86;80.05;99120.12;1434541;81;80936;-72
2022/07/12 03:16:40;;;;;;;20.88;15.25;;;;;;;11.85;80.07;99125.89;1439954;81;21539;-71
2022/07/12 03:18:41;;;;;;;17.10;15.28;;;;;;;11.85;80.06;99131.17;1438866;81;81796;-71
2022/07/12 03:20:42;;;;;;;22.90;16.75;;;;;;;11.85;80.08;99135.58;1442387;81;21008;-71
2022/07/12 03:22:46;;;;;;;;;;;;;;;11.84;80.09;99129.94;1439506;81;21075;-71
2022/07/12 03:24:46;;;;;;;19.25;15.55;;;;;;;11.84;80.16;99129.45;1435970;81;68183;-72
2022/07/12 03:26:48;;;;;;;21.95;15.72;;;;;;;11.72;80.18;99111.11;1437759;81;21540;-71
2022/07/12 03:28:49;;;;;;;19.32;16.87;;;;;;;11.84;80.17;99123.33;1434800;81;81030;-71
2022/07/12 03:30:50;;;;;;;22.80;16.12;;;;;;;11.85;80.19;99131.63;1440016;81;20969;-71
2022/07/12 03:32:51;;;;;;;23.83;16.48;;;;;;;11.85;80.18;99132.94;1437380;81;21015;-71
2022/07/12 03:34:52;;;;;;;21.95;17.07;;;;;;;11.86;80.23;99134.66;1441537;81;81915;-72
2022/07/12 03:36:56;;;;;;;30.23;18.12;;;;;;;11.85;80.20;99136.45;1440074;81;20989;-71
2022/07/12 03:38:57;;;;;;;20.85;17.10;;;;;;;11.87;80.24;99133.25;1437139;81;81641;-72
2022/07/12 03:40:58;;;;;;;23.12;17.62;;;;;;;11.88;80.25;99135.42;1440839;81;21033;-71
2022/07/12 03:42:59;;;;;;;21.42;18.15;;;;;;;11.87;80.26;99133.25;1438093;81;21468;-71
2022/07/12 03:45:00;;;;;;;28.67;19.10;;;;;;;11.89;80.33;99127.89;1440273;81;80989;-71
2022/07/12 03:47:01;;;;;;;27.35;18.57;;;;;;;11.89;80.36;99129.20;1437041;81;21576;-70
2022/07/12 03:49:02;;;;;;;26.30;18.10;;;;;;;11.90;80.36;99128.28;1437111;81;81056;-71
2022/07/12 03:51:03;;;;;;;24.67;18.20;;;;;;;11.89;80.37;99132.72;1442463;81;21060;-71
2022/07/12 03:53:04;;;;;;;26.55;18.70;;;;;;;11.91;80.42;99130.00;1439677;81;21008;-71
2022/07/12 03:55:05;;;;;;;;;;;;;;;11.91;80.40;99132.16;1435631;81;81438;-71
2022/07/12 03:57:15;;;;;;;27.85;17.35;;;;;;;11.93;80.48;99125.48;1439423;81;20154;-71
2022/07/12 03:59:16;;;;;;;23.07;17.60;;;;;;;11.93;80.47;99118.88;1436128;80;81058;-71
2022/07/12 04:01:17;;;;;;;20.90;16.23;;;;;;;11.96;80.50;99121.86;1438318;81;21001;-71
2022/07/12 04:03:18;;;;;;;29.02;17.77;;;;;;;11.99;80.50;99119.05;1441701;81;21004;-71
2022/07/12 04:05:19;;;;;;;;;;;;;;;12.00;80.50;99112.84;1442722;80;81597;-71
2022/07/12 04:07:21;;;;;;;18.37;16.02;;;;;;;12.04;80.61;99117.87;1435579;81;20134;-70
2022/07/12 04:09:22;;;;;;;28.25;15.98;;;;;;;12.04;80.61;99117.87;1456716;80;81852;-71
2022/07/12 04:11:23;;;;;;;;;;;;;;;12.08;80.59;99120.75;1458905;80;21018;-71
2022/07/12 04:13:24;;;;;;;24.45;14.40;;;;;;;12.11;80.60;99121.54;1459051;80;20134;-71
2022/07/12 04:15:25;;;;;;;18.77;14.30;;;;;;;12.11;80.57;99124.18;1455751;80;81764;-70
2022/07/12 04:17:26;;;;;;;21.68;14.75;;;;;;;12.14;80.60;99121.38;1458953;80;21632;-71
2022/07/12 04:19:31;;;;;;;;;;;;;;;12.19;80.59;99123.31;1459084;80;81932;-71
2022/07/12 04:21:32;;;;;;;16.62;11.88;;;;;;;12.22;80.68;99115.22;1458231;80;20475;-71
2022/07/12 04:23:33;;;;;;;;;;;;;;;12.26;80.65;99119.41;1457880;79;81591;-71
2022/07/12 04:25:34;;;;;;;15.05;10.72;;;;;;;12.27;80.72;99111.88;1458644;80;20493;-71
2022/07/12 04:27:36;;;;;;;13.90;9.98;;;;;;;12.33;80.73;99112.85;1460155;80;21014;-72
2022/07/12 04:29:37;;;;;;;16.75;10.50;;;;;;;12.36;80.69;99110.04;1458918;80;80831;-71
2022/07/12 04:31:38;;;;;;;;;;;;;;;12.40;80.66;99110.74;1459779;80;21593;-71
2022/07/12 04:33:39;;;;;;;17.05;8.95;;;;;;;12.44;80.69;99110.48;1459800;79;67494;-71
2022/07/12 04:35:40;;;;;;;9.03;8.13;;;;;;;12.44;80.65;99097.27;1484307;78;21428;-71
2022/07/12 04:37:41;;;;;;;8.65;7.10;;;;;;;12.47;80.60;99096.73;1478184;79;20987;-71
2022/07/12 04:39:42;;;;;;;;;;;;;;;12.47;80.55;99098.05;1487015;78;80784;-71
2022/07/12 04:41:43;;;;;;;9.05;7.47;;;;;;;12.47;80.58;99098.05;1434292;82;20156;-72
2022/07/12 04:43:44;;;;;;;17.52;7.80;;;;;;;12.46;80.55;99101.17;1483025;79;80855;-72
2022/07/12 04:45:45;;;;;;;8.95;8.00;;;;;;;12.47;80.57;99100.70;1483972;79;20967;-72
2022/07/12 04:47:46;;;;;;;15.50;8.90;;;;;;;12.48;80.54;99109.02;1484576;79;21105;-72
2022/07/12 04:49:47;;;;;;;8.18;7.37;;;;;;;12.52;80.61;99106.59;1482400;79;80855;-71
2022/07/12 04:51:48;;;;;;;11.53;6.25;;;;;;;12.54;80.63;99114.80;1483665;79;21034;-71
2022/07/12 04:53:49;;;;;;;8.88;6.97;;;;;;;12.57;80.60;99112.47;1486051;78;81028;-72
2022/07/12 04:55:50;;;;;;;;;;;;;;;12.58;80.61;99106.25;1491404;79;20979;-72
2022/07/12 04:57:50;;;;;;;7.42;6.28;;;;;;;12.60;80.64;99107.88;1465946;80;20567;-72
2022/07/12 04:59:51;;;;;;;6.67;5.60;;;;;;;12.60;80.61;99101.75;1478841;79;80691;-71
2022/07/12 05:01:52;;;;;;;5.83;5.33;;;;;;;12.64;80.63;99103.29;1482299;79;22192;-71
2022/07/12 05:03:53;;;;;;;;;;;;;;;12.68;80.65;99103.95;1478256;79;81678;-71
2022/07/12 05:05:54;;;;;;;11.38;5.42;;;;;;;12.72;80.75;99102.84;1484420;79;20209;-71
2022/07/12 05:07:55;;;;;;;;;;;;;;;12.76;80.73;99103.91;1490325;78;21057;-71
2022/07/12 05:09:57;;;;;;;7.75;4.20;;;;;;;12.82;80.70;99099.22;1487707;78;67651;-71
2022/07/12 05:11:58;;;;;;;11.65;4.03;;;;;;;12.87;80.69;99098.51;1489955;78;20951;-71
2022/07/12 05:13:59;;;;;;;5.03;3.40;;;;;;;12.91;80.65;99100.89;1491110;78;80782;-72
2022/07/12 05:16:00;;;;;;;4.62;3.58;;;;;;;12.99;80.63;99099.59;1488911;78;20998;-71
2022/07/12 05:18:01;;;;;;;;;;;;;;;13.04;80.52;99098.42;1497871;78;20993;-71
2022/07/12 05:20:03;;;;;;;11.43;3.90;;;;;;;13.09;80.51;99100.80;1490742;78;67356;-72
2022/07/12 05:22:04;;;;;;;5.75;3.83;;;;;;;13.14;80.47;99099.20;1491589;78;20975;-71
2022/07/12 05:24:05;;;;;;;;;;;;;;;13.21;80.48;99095.27;1469465;80;81561;-72
2022/07/12 05:26:06;;;;;;;7.83;3.55;;;;;;;13.25;80.45;99096.80;1489275;78;20166;-73
2022/07/12 05:28:08;;;;;;;9.75;3.65;;;;;;;13.29;80.47;99093.03;1486258;78;21022;-73
2022/07/12 05:30:09;;;;;;;6.30;3.42;;;;;;;13.35;80.34;99092.73;1467707;78;81499;-72
2022/07/12 05:32:11;;;;;;;6.28;3.37;;;;;;;13.40;80.37;99093.32;1468763;80;20979;-72
2022/07/12 05:34:12;;;;;;;8.73;3.33;;;;;;;13.48;80.38;99091.53;1428900;81;80787;-72
2022/07/12 05:36:13;;;;;;;5.28;2.70;;;;;;;13.56;80.34;99093.74;1415365;83;21508;-72
2022/07/12 05:38:14;;;;;;;3.52;2.75;;;;;;;13.62;80.24;99090.72;1408706;83;21029;-72
2022/07/12 05:40:15;;;;;;;;;;;;;;;13.69;80.22;99094.70;1437226;81;80718;-72
2022/07/12 05:42:16;;;;;;;7.10;3.63;;;;;;;13.75;80.21;99098.33;1407995;83;20135;-72
2022/07/12 05:44:18;;;;;;;8.33;4.00;;;;;;;13.79;80.12;99099.86;1409749;83;80821;-73
2022/07/12 05:46:20;;;;;;;14.05;3.83;;;;;;;13.83;80.02;99095.69;1404672;83;21059;-73
2022/07/12 05:48:20;;;;;;;;;;;;;;;13.83;79.92;99090.39;1407239;83;21028;-72
2022/07/12 05:50:21;;;;;;;7.63;3.60;;;;;;;13.83;79.89;99099.66;1426139;82;67497;-72
2022/07/12 05:54:42;;;;;;;8.05;3.72;;;;;;;13.82;79.93;99097.95;1421856;82;67212;-72
2022/07/12 05:56:43;;;;;;;10.48;3.45;;;;;;;13.86;79.94;99098.15;1427749;82;21084;-71
2022/07/12 05:58:44;;;;;;;6.58;3.50;;;;;;;13.93;79.90;99102.16;1426783;81;82281;-72
2022/07/12 06:00:46;;;;;;;;;;;;;;;14.02;79.95;99103.39;1432320;82;21179;-72
2022/07/12 06:02:47;;;;;;;6.95;3.85;;;;;;;14.09;79.99;99097.61;1430490;82;20138;-72
2022/07/12 06:04:48;;;;;;;4.25;3.58;;;;;;;14.14;79.86;99096.87;1402961;83;80563;-72
2022/07/12 06:06:48;;;;;;;;;;;;;;;14.22;79.83;99098.19;1427558;82;21045;-72
2022/07/12 06:08:49;;;;;;;6.60;4.97;;;;;;;14.29;79.85;99098.22;1413921;82;68222;-72
2022/07/12 06:10:51;;;;;;;10.48;4.62;;;;;;;14.36;79.85;99096.01;1425843;82;21361;-72
2022/07/12 06:12:52;;;;;;;11.15;4.90;;;;;;;14.43;79.74;99097.36;1459307;80;20984;-73
2022/07/12 06:14:53;;;;;;;10.38;4.80;;;;;;;14.50;79.69;99091.20;1451699;80;81812;-73
2022/07/12 06:16:54;;;;;;;6.22;4.65;;;;;;;14.58;79.64;99095.07;1452165;80;21091;-73
2022/07/12 06:18:55;;;;;;;12.18;4.85;;;;;;;14.63;79.56;99089.49;1450395;80;80627;-73
2022/07/12 06:20:55;;;;;;;;;;;;;;;14.70;79.50;99093.94;1470420;79;21013;-73
2022/07/12 06:22:57;;;;;;;9.20;5.00;;;;;;;14.72;79.35;99086.27;1465285;80;20140;-73
2022/07/12 06:24:57;;;;;;;;;;;;;;;14.77;79.41;99084.64;1465056;79;80765;-73
2022/07/12 06:26:58;;;;;;;12.80;5.28;;;;;;;14.83;79.32;99088.70;1466436;80;20172;-74
2022/07/12 06:28:59;;;;;;;10.50;4.58;;;;;;;14.86;79.17;99095.16;1468345;80;80880;-73
2022/07/12 06:31:01;;;;;;;;;;;;;;;14.87;79.08;99096.38;1469829;80;22614;-73
2022/07/12 06:33:01;;;;;;;;;;;;;;;14.91;79.13;99097.02;1468820;80;20150;-73
2022/07/12 06:35:03;;;;;;;18.40;5.28;;;;;;;14.91;78.98;99091.25;1463226;80;67728;-73
2022/07/12 06:37:04;;;;;;;9.70;5.70;;;;;;;14.89;78.94;99094.95;1465793;80;21032;-73
2022/07/12 06:39:05;;;;;;;15.38;6.40;;;;;;;14.90;78.92;99091.36;1462905;80;81677;-73
2022/07/12 06:41:05;;;;;;;;;;;;;;;14.91;78.96;99094.36;1451674;80;21224;-73
2022/07/12 06:43:10;;;;;;;14.80;5.97;;;;;;;14.92;78.82;99094.75;1429450;82;20138;-73
2022/07/12 06:45:11;;;;;;;14.23;5.78;;;;;;;14.92;78.88;99087.63;1429179;82;80934;-73
2022/07/12 06:47:12;;;;;;;7.00;5.87;;;;;;;14.95;78.84;99090.56;1437376;81;21025;-73
2022/07/12 06:49:13;;;;;;;;;;;;;;;14.97;78.88;99092.17;1428825;81;80851;-73
2022/07/12 06:51:14;;;;;;;12.80;6.97;;;;;;;14.87;78.85;99066.32;1431417;82;20475;-73
2022/07/12 06:53:15;;;;;;;;;;;;;;;15.05;78.86;99086.38;1430584;82;21034;-72
2022/07/12 06:55:16;;;;;;;12.15;6.50;;;;;;;15.08;78.74;99094.63;1428077;82;67815;-73
2022/07/12 06:57:17;;;;;;;;;;;;;;;15.10;78.76;99100.19;1436445;82;21062;-73
2022/07/12 06:59:18;;;;;;;11.48;6.78;;;;;;;15.12;78.63;99098.78;1428454;82;67194;-73
2022/07/12 07:01:19;;;;;;;8.73;7.15;;;;;;;15.13;78.69;99096.48;1431013;81;21048;-74
2022/07/12 07:03:20;;;;;;;;;;;;;;;15.17;78.60;99105.11;1436022;81;21015;-74
2022/07/12 07:05:21;;;;;;;12.60;7.10;;;;;;;15.17;78.55;99102.45;1429402;82;67114;-74
2022/07/12 07:07:22;;;;;;;13.32;6.15;;;;;;;15.15;78.41;99098.09;1426519;82;21537;-74
2022/07/12 07:09:23;;;;;;;7.78;6.05;;;;;;;15.15;78.35;99100.75;1428125;82;81690;-73
2022/07/12 07:11:25;;;;;;;8.55;6.40;;;;;;;15.15;78.27;99101.23;1429021;82;21005;-73
2022/07/12 07:13:26;;;;;;;11.90;6.35;;;;;;;15.15;78.29;99098.09;1431457;81;20985;-73
2022/07/12 07:15:27;;;;;;;;;;;;;;;15.12;78.53;99092.98;1432794;81;81361;-74
2022/07/12 07:17:28;;;;;;;10.65;5.95;;;;;;;15.20;78.34;99098.27;1432069;82;20209;-74
2022/07/12 07:19:29;;;;;;;;;;;;;;;15.23;78.30;99105.56;1433685;81;80901;-74
2022/07/12 07:21:30;;;;;;;5.87;5.28;;;;;;;15.26;78.16;99111.16;1431516;82;20165;-73
2022/07/12 07:23:31;;;;;;;;;;;;;;;15.29;78.32;99109.63;1433454;82;21055;-72
2022/07/12 07:25:32;;;;;;;8.08;5.55;;;;;;;15.36;78.26;99110.91;1430572;82;66952;-73
2022/07/12 07:27:32;;;;;;;;;;;;;;;15.41;78.21;99117.23;1436799;82;21008;-73
2022/07/12 07:31:53;;;;;;;7.58;5.53;;;;;;;15.46;78.05;99111.99;1428929;82;22203;-73
2022/07/12 07:33:54;;;;;;;7.05;5.10;;;;;;;15.52;78.02;99117.41;1428097;81;82060;-73
2022/07/12 07:35:55;;;;;;;;;;;;;;;15.56;77.87;99122.02;1435776;82;21049;-73
2022/07/12 07:37:56;;;;;;;6.97;5.05;;;;;;;15.57;77.82;99117.09;1430599;82;20187;-73
2022/07/12 07:39:57;;;;;;;;;;;;;;;15.57;77.64;99123.73;1430227;82;80823;-73
2022/07/12 07:41:58;;;;;;;6.20;4.12;;;;;;;15.58;77.68;99121.45;1429752;81;20153;-73
2022/07/12 07:43:59;;;;;;;;;;;;;;;15.62;77.63;99122.95;1431942;82;81426;-73
2022/07/12 07:46:01;;;;;;;8.95;4.28;;;;;;;15.65;77.65;99120.09;1430096;81;20128;-73
2022/07/12 07:48:03;;;;;;;6.60;3.72;;;;;;;15.66;77.60;99115.16;1431371;82;21071;-73
2022/07/12 07:50:05;;;;;;;6.75;3.70;;;;;;;15.69;77.60;99114.94;1428650;82;82044;-73
2022/07/12 07:52:06;;;;;;;5.83;3.92;;;;;;;15.72;77.59;99110.74;1431725;82;21421;-73
2022/07/12 07:54:07;;;;;;;5.97;3.95;;;;;;;15.77;77.51;99112.62;1431674;82;81346;-73
2022/07/12 07:56:08;;;;;;;;;;;;;;;15.86;77.63;99115.16;1432493;82;21520;-73
2022/07/12 07:58:09;;;;;;;6.58;3.35;;;;;;;15.94;77.62;99112.83;1432879;82;20190;-73
2022/07/12 08:00:10;;;;;;;;;;;;;;;15.99;77.38;99105.40;1435162;82;81289;-73
2022/07/12 08:02:11;;;;;;;;;;;;;;;16.04;77.32;99110.39;1431474;82;20161;-73
2022/07/12 08:04:13;;;;;;;3.20;2.90;;;;;;;16.08;77.20;99113.20;1429070;82;68357;-73
2022/07/12 08:06:14;;;;;;;4.60;2.75;;;;;;;16.16;77.28;99104.23;1431912;81;21023;-73
2022/07/12 08:08:15;;;;;;;;;;;;;;;16.27;77.15;99099.95;1428256;82;21082;-73
2022/07/12 08:10:16;;;;;;;3.50;2.12;;;;;;;16.30;76.65;99108.58;1430016;82;67268;-73
2022/07/12 08:12:17;;;;;;;2.77;2.50;;;;;;;16.30;76.45;99113.06;1423537;82;21588;-73
2022/07/12 08:14:18;;;;;;;5.25;2.45;;;;;;;16.29;76.26;99106.03;1476697;79;81351;-72
2022/07/12 08:16:19;;;;;;;4.97;2.47;;;;;;;16.28;76.26;99116.30;1477753;79;21074;-73
2022/07/12 08:18:20;;;;;;;;;;;;;;;16.31;76.53;99116.07;1477693;79;20984;-73
2022/07/12 08:20:24;;;;;;;2.65;2.45;;;;;;;16.36;76.53;99115.28;1479700;79;67897;-73
2022/07/12 08:22:24;;;;;;;3.02;2.10;;;;;;;16.40;76.44;99111.45;1478305;79;21391;-73
2022/07/12 08:24:25;;;;;;;;;;;;;;;16.58;76.59;99111.95;1480651;79;81862;-73
2022/07/12 08:26:26;;;;;;;6.17;2.50;;;;;;;16.75;76.41;99114.73;1476935;79;20183;-73
2022/07/12 08:28:28;;;;;;;2.20;2.00;;;;;;;16.88;76.36;99108.53;1481703;79;21044;-73
2022/07/12 08:30:29;;;;;;;2.62;2.10;;;;;;;17.01;76.13;99108.05;1480017;79;81782;-73
2022/07/12 08:32:29;;;;;;;4.53;2.25;;;;;;;17.12;76.04;99106.78;1470098;79;21199;-72
2022/07/12 08:34:30;;;;;;;;;;;;;;;17.26;75.71;99111.58;1473516;79;82077;-73
2022/07/12 08:36:31;;;;;;;6.92;2.40;;;;;;;17.30;75.53;99107.73;1473329;79;20164;-73
2022/07/12 08:38:33;;;;;;;;;;;;;;;17.28;75.35;99101.19;1479651;79;21015;-74
2022/07/12 08:40:34;;;;;;;4.03;2.08;;;;;;;17.31;75.05;99106.77;1475406;79;66960;-73
2022/07/12 08:42:37;;;;;;;3.15;1.87;;;;;;;17.34;74.87;99099.38;1479358;79;20985;-73
2022/07/12 08:44:38;;;;;;;2.55;1.98;;;;;;;17.48;75.21;99095.69;1475999;79;81504;-73
2022/07/12 08:46:39;;;;;;;8.83;2.10;;;;;;;17.65;74.84;99101.10;1477948;79;21551;-74
2022/07/12 08:48:43;;;;;;;3.02;2.12;;;;;;;17.78;74.72;99085.02;1479541;79;81872;-73
2022/07/12 08:50:48;;;;;;;12.73;2.20;;;;;;;17.94;74.60;99090.53;1479640;79;21020;-73
2022/07/12 08:52:55;;;;;;;6.00;2.22;;;;;;;17.97;74.42;99088.95;1475918;79;21290;-73
2022/07/12 08:54:53;;;;;;;3.25;2.40;;;;;;;17.99;74.29;99090.54;1472719;79;81891;-73
2022/07/12 08:56:57;;;;;;;3.35;1.92;;;;;;;18.02;73.94;99093.45;1488317;79;20987;-73
2022/07/12 08:59:16;;;;;;;6.65;1.98;;;;;;;18.12;74.43;99091.77;1476605;79;80512;-73
2022/07/12 09:01:21;;;;;;;2.87;1.95;;;;;;;18.31;74.18;99089.01;1477887;79;22296;-73
2022/07/12 09:03:22;;;;;;;3.67;2.42;;;;;;;18.45;73.39;99084.75;1471473;79;20937;-74
2022/07/12 09:05:27;;;;;;;8.43;2.30;;;;;;;18.47;72.96;99096.17;1474494;79;80756;-73
2022/07/12 09:07:28;;;;;;;19.67;2.00;;;;;;;18.39;72.68;99101.27;1474737;79;21064;-73
2022/07/12 09:09:30;;;;;;;8.18;2.52;;;;;;;18.32;73.05;99092.88;1481135;79;80862;-73
2022/07/12 09:11:31;;;;;;;2.98;1.87;;;;;;;18.36;73.30;99097.51;1477272;79;21958;-74
2022/07/12 09:13:51;;;;;;;4.47;1.92;;;;;;;18.42;73.04;99089.01;1482350;79;21000;-73
2022/07/12 09:15:52;;;;;;;3.67;1.50;;;;;;;18.48;72.98;99090.34;1483089;79;21015;-73
2022/07/12 09:17:58;;;;;;;5.97;1.40;;;;;;;18.61;73.05;99087.06;1478489;79;21571;-73
2022/07/12 09:19:59;;;;;;;30.77;2.95;;;;;;;18.63;71.81;99110.47;1481039;79;81735;-73
2022/07/12 09:22:00;;;;;;;10.85;2.33;;;;;;;18.41;71.51;99130.00;1481863;79;20995;-73
2022/07/12 09:24:02;;;;;;;3.12;1.85;;;;;;;17.78;72.36;99130.34;1478705;79;80912;-72
2022/07/12 09:26:06;;;;;;;2.70;2.05;;;;;;;17.22;73.42;99149.58;1483354;79;21016;-73
2022/07/12 09:28:08;;;;;;;4.67;2.65;;;;;;;16.82;74.03;99155.95;1482488;79;21047;-74
2022/07/12 09:30:10;;;;;;;2.35;1.32;;;;;;;16.44;73.91;99146.19;1482991;79;80634;-73
2022/07/12 09:36:56;;;;;;;5.05;1.60;;;;;;;15.52;75.12;99137.33;1484353;79;21012;-72
2022/07/12 09:39:00;;;;;;;2.30;1.22;;;;;;;15.31;75.44;99133.80;1477444;79;81513;-72
2022/07/12 09:41:00;;;;;;;3.42;1.55;;;;;;;15.18;75.77;99136.03;1479297;79;21258;-71
2022/07/12 09:43:05;;;;;;;2.37;1.45;;;;;;;15.10;76.03;99138.68;1480779;79;22382;-71
2022/07/12 09:45:08;;;;;;;3.30;1.40;;;;;;;15.07;76.14;99133.58;1477093;79;80887;-73
2022/07/12 09:47:15;;;;;;;2.37;1.70;;;;;;;15.02;76.28;99130.36;1479307;79;21035;-73
2022/07/12 09:49:18;;;;;;;3.02;1.90;;;;;;;15.04;76.53;99133.78;1481393;79;82126;-73